In Rescue
 
Open Full Screen Window  High Contrast Mode
Wind Gusting 00 knots
05
May 13, 2021 11:44 AM EDT
Weather Information
Wind Direction
  310 °
Wind Speed
  05 kt (6 mph)
Wind Gust
  00 kt (0 mph)
Altimeter
30.42 in
Visibility
10 SM
Temperature
17° C
63° F
Dewpoint
-05° C
23° F
Humidity
22%
Sky Condition
Clear
VFR

METAR KHAI 131544Z AUTO 31005KT 10SM CLR 17/M05 A3042 RMK AO2 T01671049

FAA Disclaimer: The data displayed is for advisory purposes only and is not to be used for flight planning or operations.